Time;durP1;ratioP1;P1;durP2;ratioP2;P2;SDS_P1;SDS_P2;PMS_P1;PMS_P2;Temp;Humidity;BMP_temperature;BMP_pressure;BME280_temperature;BME280_humidity;BME280_pressure;Samples;Min_cycle;Max_cycle;Signal;HPM_P1;HPM_P2
2020/12/19 00:00:34;;;;;;;3.40;2.17;;;11.00;81.70;;;;;;5019156;28;20058;-41
2020/12/19 00:03:20;;;;;;;1.98;1.80;;;11.10;81.70;;;;;;5019218;28;20041;-46
2020/12/19 00:05:45;;;;;;;2.00;1.80;;;11.00;81.70;;;;;;5034482;28;20052;-48
2020/12/19 00:08:11;;;;;;;2.60;2.15;;;11.00;81.70;;;;;;5033682;28;20500;-41
2020/12/19 00:10:37;;;;;;;3.58;1.90;;;11.10;81.80;;;;;;5034017;28;20383;-42
2020/12/19 00:13:02;;;;;;;2.22;1.70;;;11.10;81.80;;;;;;5034738;28;20088;-42
2020/12/19 00:15:28;;;;;;;1.75;1.50;;;11.00;81.70;;;;;;5027529;28;20050;-42
2020/12/19 00:17:54;;;;;;;2.13;1.90;;;11.00;81.70;;;;;;5028398;28;20129;-44
2020/12/19 00:20:20;;;;;;;2.30;2.08;;;11.10;81.80;;;;;;5030928;28;20125;-41
2020/12/19 00:22:46;;;;;;;2.47;2.00;;;11.00;81.70;;;;;;5030009;28;20103;-46
2020/12/19 00:25:12;;;;;;;2.03;1.73;;;11.10;81.80;;;;;;5030208;28;20038;-41
2020/12/19 00:27:38;;;;;;;2.25;2.00;;;11.10;81.80;;;;;;5025578;28;20387;-41
2020/12/19 00:30:06;;;;;;;2.80;1.95;;;11.10;81.80;;;;;;5031309;28;20489;-44
2020/12/19 00:32:32;;;;;;;2.83;1.80;;;11.00;81.70;;;;;;5027334;28;20041;-45
2020/12/19 00:34:58;;;;;;;2.50;1.77;;;11.00;81.70;;;;;;5023691;28;20049;-42
2020/12/19 00:37:24;;;;;;;2.53;2.20;;;11.00;81.70;;;;;;5030365;28;20049;-45
2020/12/19 00:39:51;;;;;;;2.40;2.00;;;11.10;81.80;;;;;;5025719;28;20041;-42
2020/12/19 00:42:17;;;;;;;2.60;2.20;;;11.10;81.80;;;;;;5028606;28;20116;-41
2020/12/19 00:44:43;;;;;;;2.58;2.38;;;11.00;81.70;;;;;;5027477;28;20465;-50
2020/12/19 00:47:28;;;;;;;2.67;2.13;;;11.00;81.70;;;;;;5015985;28;20053;-46
2020/12/19 00:49:54;;;;;;;3.50;1.90;;;11.00;81.70;;;;;;5030737;28;20049;-48
2020/12/19 00:52:20;;;;;;;2.58;2.03;;;11.00;81.70;;;;;;5032303;28;20041;-42
2020/12/19 00:54:47;;;;;;;3.25;2.50;;;11.00;81.70;;;;;;5029847;28;20061;-44
2020/12/19 00:57:13;;;;;;;2.05;1.70;;;11.00;81.70;;;;;;5032416;28;20050;-47
2020/12/19 00:59:39;;;;;;;2.30;1.83;;;11.00;81.70;;;;;;5028962;28;20033;-42
2020/12/19 01:02:26;;;;;;;3.17;2.28;;;11.00;81.70;;;;;;5016401;28;20050;-42
2020/12/19 01:04:51;;;;;;;2.17;1.85;;;11.00;81.70;;;;;;5028624;28;20133;-44
2020/12/19 01:07:17;;;;;;;2.75;2.10;;;11.00;81.70;;;;;;5028723;28;20133;-44
2020/12/19 01:09:43;;;;;;;2.15;1.95;;;11.10;81.70;;;;;;5019493;28;20416;-45
2020/12/19 01:12:09;;;;;;;2.88;2.40;;;11.00;81.70;;;;;;5024919;28;20045;-45
2020/12/19 01:14:34;;;;;;;3.35;2.20;;;11.00;81.70;;;;;;5024926;28;20112;-44
2020/12/19 01:17:04;;;;;;;2.75;2.00;;;11.00;81.70;;;;;;5028308;28;20045;-45
2020/12/19 01:19:30;;;;;;;2.08;1.80;;;11.10;81.80;;;;;;5028641;28;20099;-44
2020/12/19 01:22:15;;;;;;;2.28;1.95;;;11.00;81.70;;;;;;5017246;28;20073;-46
2020/12/19 01:24:41;;;;;;;2.08;1.80;;;11.10;81.80;;;;;;5028968;28;20517;-45
2020/12/19 01:27:27;;;;;;;2.67;2.10;;;11.00;81.70;;;;;;5014942;28;20128;-43
2020/12/19 01:29:52;;;;;;;2.03;1.83;;;11.00;81.70;;;;;;5028112;28;20144;-43
2020/12/19 01:32:18;;;;;;;2.80;2.20;;;11.00;81.70;;;;;;5025784;28;20448;-45
2020/12/19 01:34:44;;;;;;;2.95;2.17;;;11.00;81.70;;;;;;5029183;28;20045;-42
2020/12/19 01:37:09;;;;;;;2.30;1.85;;;11.10;81.80;;;;;;5027122;28;20065;-51
2020/12/19 01:39:55;;;;;;;2.72;2.03;;;11.00;81.70;;;;;;5017837;28;20045;-49
2020/12/19 01:42:21;;;;;;;2.28;2.00;;;11.00;81.70;;;;;;5027017;28;20092;-45
2020/12/19 01:44:46;;;;;;;2.88;2.28;;;11.00;81.70;;;;;;5031260;28;20041;-45
2020/12/19 01:47:14;;;;;;;2.50;2.05;;;11.00;82.30;;;;;;5032766;28;20249;-43
2020/12/19 01:49:40;;;;;;;2.97;2.05;;;11.00;81.70;;;;;;5026524;28;20490;-43
2020/12/19 01:52:07;;;;;;;2.80;2.00;;;11.00;81.70;;;;;;5026776;28;20083;-42
2020/12/19 01:54:33;;;;;;;2.45;2.00;;;11.00;81.70;;;;;;5021477;28;20049;-44
2020/12/19 01:57:00;;;;;;;3.10;2.20;;;11.00;81.70;;;;;;5032225;28;20038;-46
2020/12/19 01:59:27;;;;;;;2.72;2.42;;;11.00;81.70;;;;;;5021279;28;20060;-42
2020/12/19 02:02:04;;;;;;;2.78;2.15;;;11.00;81.70;;;;;;5021897;28;20049;-42
2020/12/19 02:04:29;;;;;;;;;;;11.00;81.70;;;;;;5019319;28;20049;-41
2020/12/19 02:07:15;;;;;;;3.20;2.72;;;11.00;81.70;;;;;;5014547;28;19928;-43
2020/12/19 02:09:42;;;;;;;3.10;2.72;;;11.00;81.70;;;;;;5024256;28;20112;-47
2020/12/19 02:12:28;;;;;;;2.55;2.10;;;11.00;81.70;;;;;;5014744;28;20059;-41
2020/12/19 02:14:57;;;;;;;2.58;2.00;;;11.00;81.70;;;;;;5026189;28;20041;-41
2020/12/19 02:17:23;;;;;;;3.40;2.97;;;11.00;81.70;;;;;;5028366;28;20115;-46
2020/12/19 02:19:48;;;;;;;2.88;2.17;;;11.00;81.70;;;;;;5027803;28;20493;-45
2020/12/19 02:22:14;;;;;;;3.33;2.50;;;11.00;81.80;;;;;;5028050;28;20132;-48
2020/12/19 02:24:41;;;;;;;2.95;2.25;;;11.00;81.70;;;;;;5024409;28;20137;-47
2020/12/19 02:27:06;;;;;;;2.75;2.30;;;11.00;81.80;;;;;;5026175;28;20125;-48
2020/12/19 02:29:52;;;;;;;3.20;2.45;;;11.00;81.70;;;;;;5015608;28;20555;-46
2020/12/19 02:32:18;;;;;;;3.25;2.42;;;11.00;81.70;;;;;;5030715;28;20041;-45
2020/12/19 02:34:43;;;;;;;2.47;2.25;;;11.00;81.80;;;;;;5026484;28;20065;-44
2020/12/19 02:37:09;;;;;;;2.50;2.30;;;11.00;81.70;;;;;;5030145;28;20060;-44
2020/12/19 02:39:35;;;;;;;3.22;2.53;;;11.00;81.80;;;;;;5024842;28;20045;-44
2020/12/19 02:42:00;;;;;;;2.75;2.13;;;11.00;81.70;;;;;;5027099;28;20045;-40
2020/12/19 02:44:26;;;;;;;2.45;2.25;;;11.00;81.70;;;;;;5030686;28;20068;-46
2020/12/19 02:47:12;;;;;;;3.03;2.47;;;11.00;81.70;;;;;;5017233;28;20084;-41
2020/12/19 02:49:37;;;;;;;3.20;2.53;;;11.00;81.70;;;;;;5031277;28;20073;-46
2020/12/19 02:52:23;;;;;;;3.33;2.20;;;11.00;81.80;;;;;;5020329;28;20073;-45
2020/12/19 02:54:49;;;;;;;3.03;2.40;;;11.00;81.70;;;;;;5034172;28;20084;-45
2020/12/19 02:57:14;;;;;;;2.90;2.05;;;11.00;81.80;;;;;;5036828;28;20160;-45
2020/12/19 02:59:40;;;;;;;3.55;2.35;;;11.00;81.70;;;;;;5030686;28;20046;-45
2020/12/19 03:02:06;;;;;;;3.40;2.70;;;11.00;81.70;;;;;;5031653;28;20060;-45
2020/12/19 03:04:52;;;;;;;3.50;2.63;;;11.00;81.70;;;;;;5016235;28;20037;-44
2020/12/19 03:07:17;;;;;;;3.30;2.60;;;11.00;81.70;;;;;;5037197;28;20049;-43
2020/12/19 03:09:43;;;;;;;2.92;2.55;;;11.00;81.70;;;;;;5033543;28;20073;-44
2020/12/19 03:12:09;;;;;;;4.15;2.83;;;11.00;81.70;;;;;;5034824;28;20045;-44
2020/12/19 03:14:34;;;;;;;2.72;2.25;;;11.00;81.70;;;;;;5030916;28;20482;-42
2020/12/19 03:17:00;;;;;;;2.63;2.40;;;11.00;81.70;;;;;;5033591;28;20103;-43
2020/12/19 03:19:46;;;;;;;3.15;2.28;;;11.00;81.70;;;;;;5017069;28;20073;-44
2020/12/19 03:22:31;;;;;;;3.50;2.17;;;11.00;81.70;;;;;;5022864;28;20084;-43
2020/12/19 03:24:57;;;;;;;3.20;2.40;;;11.00;81.80;;;;;;5037324;28;20041;-43
2020/12/19 03:27:23;;;;;;;2.67;2.35;;;11.00;81.70;;;;;;5038551;28;20055;-43
2020/12/19 03:30:09;;;;;;;3.70;2.50;;;11.00;81.80;;;;;;5022417;28;20049;-44
2020/12/19 03:32:34;;;;;;;3.40;2.55;;;11.00;81.80;;;;;;5037540;28;20100;-41
2020/12/19 03:35:21;;;;;;;2.78;2.47;;;11.00;81.80;;;;;;5019311;28;20052;-44
2020/12/19 03:37:47;;;;;;;2.88;2.38;;;11.00;81.80;;;;;;5038033;28;20046;-45
2020/12/19 03:40:13;;;;;;;3.58;2.45;;;11.00;81.80;;;;;;5037806;28;20147;-41
2020/12/19 03:42:59;;;;;;;2.72;2.38;;;11.00;81.80;;;;;;5021923;28;20071;-42
2020/12/19 03:45:24;;;;;;;2.40;2.20;;;11.00;81.80;;;;;;5037871;28;20481;-42
2020/12/19 03:47:50;;;;;;;4.40;2.88;;;11.00;81.80;;;;;;5035548;28;20087;-43
2020/12/19 03:50:36;;;;;;;2.95;2.42;;;11.00;81.80;;;;;;5020199;28;20075;-45
2020/12/19 03:53:02;;;;;;;3.33;2.50;;;11.00;81.80;;;;;;5037485;28;20045;-45
2020/12/19 03:55:47;;;;;;;2.90;2.60;;;11.00;81.80;;;;;;5019415;28;20048;-40
2020/12/19 03:58:13;;;;;;;3.13;2.50;;;11.00;81.70;;;;;;5034905;28;20499;-42
2020/12/19 04:00:39;;;;;;;3.30;2.40;;;11.00;81.80;;;;;;5032775;28;20050;-45
2020/12/19 04:03:25;;;;;;;3.38;2.67;;;11.00;81.80;;;;;;5018206;28;20045;-44
2020/12/19 04:05:50;;;;;;;3.17;2.58;;;11.00;81.80;;;;;;5033003;28;20049;-44
2020/12/19 04:08:16;;;;;;;2.83;2.40;;;10.90;81.70;;;;;;5034551;28;20049;-43
2020/12/19 04:10:42;;;;;;;2.90;2.10;;;11.00;81.80;;;;;;5033230;28;20052;-41
2020/12/19 04:13:07;;;;;;;2.92;2.20;;;11.00;81.70;;;;;;5034219;28;20397;-42
2020/12/19 04:15:34;;;;;;;2.92;2.47;;;10.90;81.70;;;;;;5034274;28;20064;-42
2020/12/19 04:17:59;;;;;;;3.20;2.55;;;11.00;81.80;;;;;;5034331;28;20048;-42
2020/12/19 04:20:25;;;;;;;2.95;2.42;;;11.00;81.80;;;;;;5033761;28;20053;-44
2020/12/19 04:23:11;;;;;;;3.15;2.22;;;11.00;81.70;;;;;;5019084;28;20045;-42
2020/12/19 04:25:56;;;;;;;3.30;2.50;;;11.00;81.80;;;;;;5017568;28;20053;-43
2020/12/19 04:28:22;;;;;;;2.63;2.20;;;11.00;81.80;;;;;;5034072;28;20414;-41
2020/12/19 04:30:48;;;;;;;2.88;2.50;;;11.00;81.80;;;;;;5034453;28;20552;-46
2020/12/19 04:33:13;;;;;;;3.72;2.72;;;10.90;81.70;;;;;;5033180;28;20088;-41
2020/12/19 04:35:39;;;;;;;3.17;2.65;;;11.00;81.80;;;;;;5032334;28;20582;-46
2020/12/19 04:38:05;;;;;;;3.55;2.67;;;11.00;81.80;;;;;;5034364;28;20409;-45
2020/12/19 04:40:30;;;;;;;3.55;2.60;;;11.00;81.80;;;;;;5034416;28;20504;-48
2020/12/19 04:43:18;;;;;;;4.03;2.42;;;10.90;81.70;;;;;;5017616;28;20049;-48
2020/12/19 04:46:04;;;;;;;3.53;2.78;;;11.00;81.80;;;;;;5017224;28;20041;-43
2020/12/19 04:48:30;;;;;;;2.88;2.42;;;11.00;81.80;;;;;;5032425;28;20053;-46
2020/12/19 04:50:56;;;;;;;3.22;2.53;;;11.00;81.80;;;;;;5034272;28;20600;-45
2020/12/19 04:53:22;;;;;;;2.60;2.35;;;11.00;81.80;;;;;;5032031;28;20060;-49
2020/12/19 04:55:49;;;;;;;3.20;2.60;;;11.00;81.80;;;;;;5033921;28;20045;-47
2020/12/19 04:58:18;;;;;;;3.03;2.63;;;11.00;81.80;;;;;;5032783;28;20049;-45
2020/12/19 05:00:46;;;;;;;3.60;2.63;;;10.90;81.80;;;;;;5034047;28;20045;-41
2020/12/19 05:03:14;;;;;;;3.88;2.90;;;11.00;81.80;;;;;;5032312;28;20053;-45
2020/12/19 05:05:45;;;;;;;3.08;2.58;;;11.00;81.80;;;;;;5031349;28;20087;-42
2020/12/19 05:08:31;;;;;;;3.70;2.85;;;11.00;81.80;;;;;;5017210;28;20057;-42
2020/12/19 05:10:57;;;;;;;3.38;2.50;;;10.90;81.70;;;;;;5033884;28;20045;-45
2020/12/19 05:13:23;;;;;;;3.35;2.60;;;11.00;81.80;;;;;;5032761;28;20046;-39
2020/12/19 05:16:12;;;;;;;;;;;11.00;81.80;;;;;;5019189;28;20045;-44
2020/12/19 05:18:39;;;;;;;3.38;2.85;;;10.90;81.70;;;;;;5032535;28;19921;-47
2020/12/19 05:21:24;;;;;;;3.20;2.65;;;10.90;81.80;;;;;;5016721;28;20064;-46
2020/12/19 05:23:51;;;;;;;3.38;2.80;;;10.90;81.70;;;;;;5032995;28;20124;-42
2020/12/19 05:26:17;;;;;;;2.88;2.28;;;11.00;81.80;;;;;;5032574;28;20045;-44
2020/12/19 05:29:04;;;;;;;2.97;2.33;;;11.00;81.80;;;;;;5016327;28;20049;-47
2020/12/19 05:31:33;;;;;;;3.65;2.95;;;10.90;81.70;;;;;;5033438;28;20049;-48
2020/12/19 05:33:58;;;;;;;3.25;2.55;;;11.00;82.00;;;;;;5032297;28;20039;-43
2020/12/19 05:36:28;;;;;;;2.92;2.63;;;11.00;81.80;;;;;;5031956;28;20132;-42
2020/12/19 05:38:59;;;;;;;3.40;2.90;;;11.00;81.80;;;;;;5032225;28;20053;-46
2020/12/19 05:41:46;;;;;;;3.45;2.85;;;11.00;81.80;;;;;;5015993;28;20041;-43
2020/12/19 05:44:23;;;;;;;3.63;2.83;;;10.90;81.80;;;;;;5032642;28;20045;-43
2020/12/19 05:46:49;;;;;;;3.65;2.83;;;11.00;81.80;;;;;;5031015;28;20045;-44
2020/12/19 05:49:16;;;;;;;2.78;2.47;;;10.90;81.80;;;;;;5032603;28;20041;-44
2020/12/19 05:52:02;;;;;;;3.50;2.65;;;11.00;81.80;;;;;;5015659;28;20041;-46
2020/12/19 05:54:51;;;;;;;2.88;2.47;;;10.90;81.70;;;;;;5017216;28;20501;-43
2020/12/19 05:57:18;;;;;;;3.75;2.80;;;10.90;81.80;;;;;;5031560;28;20490;-40
2020/12/19 05:59:47;;;;;;;4.72;2.92;;;10.90;81.80;;;;;;5032446;28;20045;-46
2020/12/19 06:02:35;;;;;;;3.38;2.60;;;10.90;81.80;;;;;;5016594;28;20413;-45
2020/12/19 06:05:04;;;;;;;3.63;2.70;;;11.00;81.80;;;;;;5030279;28;20045;-46
2020/12/19 06:07:35;;;;;;;3.40;2.70;;;10.90;81.80;;;;;;5029920;28;20046;-41
2020/12/19 06:10:20;;;;;;;3.13;2.65;;;11.00;81.80;;;;;;5014981;28;20379;-43
2020/12/19 06:13:04;;;;;;;3.60;3.00;;;10.90;81.80;;;;;;5031930;28;20136;-39
2020/12/19 06:15:44;;;;;;;4.20;3.10;;;11.00;81.80;;;;;;5030536;28;20045;-44
2020/12/19 06:18:21;;;;;;;3.22;2.63;;;11.00;81.80;;;;;;5029711;28;20215;-43
2020/12/19 06:20:47;;;;;;;4.18;3.03;;;11.00;81.80;;;;;;5029725;28;20405;-42
2020/12/19 06:23:37;;;;;;;3.67;2.80;;;10.90;82.40;;;;;;5014339;28;20067;-43
2020/12/19 06:26:04;;;;;;;3.05;2.60;;;11.00;81.80;;;;;;5030069;28;20512;-43
2020/12/19 06:28:42;;;;;;;3.38;2.90;;;10.90;81.80;;;;;;5030534;28;20535;-39
2020/12/19 06:31:19;;;;;;;3.20;2.85;;;11.00;81.80;;;;;;5032152;28;20508;-42
2020/12/19 06:34:04;;;;;;;4.22;2.80;;;11.00;81.80;;;;;;5014715;28;20400;-43
2020/12/19 06:36:32;;;;;;;3.53;2.90;;;10.90;81.80;;;;;;5031723;28;20045;-42
2020/12/19 06:39:06;;;;;;;3.83;2.83;;;10.90;81.80;;;;;;5031332;28;20505;-46
2020/12/19 06:42:00;;;;;;;3.50;3.00;;;10.90;81.80;;;;;;5031956;28;20056;-42
2020/12/19 06:44:32;;;;;;;3.45;2.90;;;11.00;81.80;;;;;;5028027;28;20795;-45
2020/12/19 06:47:19;;;;;;;3.30;2.65;;;11.00;81.80;;;;;;5015389;28;20037;-47
2020/12/19 06:49:52;;;;;;;2.92;2.63;;;10.90;81.80;;;;;;5031390;28;20067;-43
2020/12/19 06:52:38;;;;;;;3.60;2.95;;;11.00;81.80;;;;;;5016597;28;20125;-42
2020/12/19 06:55:19;;;;;;;3.30;3.00;;;10.90;81.80;;;;;;5030393;28;20057;-43
2020/12/19 06:57:52;;;;;;;3.95;2.65;;;10.90;81.80;;;;;;5030123;28;20123;-42
2020/12/19 07:00:38;;;;;;;4.03;2.75;;;10.90;81.80;;;;;;5016335;28;20045;-46
2020/12/19 07:03:04;;;;;;;3.10;2.35;;;10.90;81.80;;;;;;5031178;28;20045;-42
2020/12/19 07:05:33;;;;;;;3.53;2.95;;;10.90;81.80;;;;;;5031715;28;20049;-45
2020/12/19 07:08:22;;;;;;;4.07;3.20;;;10.90;81.80;;;;;;5015847;28;20055;-41
2020/12/19 07:10:50;;;;;;;3.33;2.72;;;11.00;81.80;;;;;;5030332;28;20041;-42
2020/12/19 07:13:15;;;;;;;3.05;2.55;;;10.90;81.80;;;;;;5031438;28;20040;-41
2020/12/19 07:15:49;;;;;;;3.45;2.83;;;10.90;81.80;;;;;;5031126;28;20049;-42
2020/12/19 07:18:27;;;;;;;4.10;3.10;;;10.90;81.70;;;;;;5030319;28;20053;-41
2020/12/19 07:21:04;;;;;;;3.20;2.88;;;11.00;81.80;;;;;;5027758;28;20112;-43
2020/12/19 07:23:31;;;;;;;3.15;2.85;;;10.90;81.70;;;;;;5029792;28;20045;-44
2020/12/19 07:25:57;;;;;;;3.85;3.10;;;10.90;81.80;;;;;;5031573;28;20030;-46
2020/12/19 07:28:24;;;;;;;3.67;2.75;;;10.90;81.80;;;;;;5029202;28;20049;-43
2020/12/19 07:30:50;;;;;;;3.05;2.55;;;10.90;81.80;;;;;;5032341;28;20053;-44
2020/12/19 07:33:16;;;;;;;4.43;2.90;;;10.80;81.70;;;;;;5033723;28;20115;-45
2020/12/19 07:36:03;;;;;;;3.42;2.55;;;10.90;81.80;;;;;;5019702;28;20453;-45
2020/12/19 07:38:49;;;;;;;3.17;2.70;;;10.90;81.80;;;;;;5018573;28;20089;-42
2020/12/19 07:41:16;;;;;;;3.67;2.55;;;10.90;81.70;;;;;;5034504;28;20045;-47
2020/12/19 07:44:09;;;;;;;3.00;2.60;;;10.90;81.80;;;;;;5019235;28;20107;-46
2020/12/19 07:46:35;;;;;;;6.05;2.80;;;10.90;81.80;;;;;;5033637;28;20454;-46
2020/12/19 07:49:00;;;;;;;3.75;3.05;;;10.90;81.80;;;;;;5034478;28;20069;-44
2020/12/19 07:51:26;;;;;;;3.20;2.70;;;10.90;81.80;;;;;;5035304;28;20480;-43
2020/12/19 07:53:52;;;;;;;3.38;2.55;;;10.90;81.80;;;;;;5033612;28;20045;-43
2020/12/19 07:56:19;;;;;;;3.50;2.70;;;10.90;81.80;;;;;;5034497;28;20099;-46
2020/12/19 07:58:46;;;;;;;3.40;2.90;;;10.90;81.80;;;;;;5034387;28;20049;-43
2020/12/19 08:01:12;;;;;;;4.70;2.65;;;10.90;81.70;;;;;;5035316;28;20056;-43
2020/12/19 08:03:38;;;;;;;3.65;3.08;;;10.90;81.70;;;;;;5033952;28;20072;-44
2020/12/19 08:06:04;;;;;;;4.18;3.05;;;10.90;81.70;;;;;;5035129;28;20042;-43
2020/12/19 08:08:30;;;;;;;3.45;2.80;;;10.90;81.80;;;;;;5033555;28;20049;-46
2020/12/19 08:11:05;;;;;;;4.38;3.20;;;10.90;81.70;;;;;;5034964;28;20052;-47
2020/12/19 08:13:50;;;;;;;4.00;2.78;;;10.90;81.70;;;;;;5018349;28;20053;-44
2020/12/19 08:16:16;;;;;;;4.95;3.45;;;10.90;81.70;;;;;;5033209;28;20092;-44
2020/12/19 08:18:42;;;;;;;3.20;2.78;;;10.90;81.70;;;;;;5033959;28;20461;-47
2020/12/19 08:21:07;;;;;;;3.28;2.72;;;10.90;81.70;;;;;;5034441;28;20410;-44
2020/12/19 08:23:33;;;;;;;3.80;3.35;;;10.90;81.70;;;;;;5033451;28;20045;-44
2020/12/19 08:25:59;;;;;;;4.32;3.03;;;10.90;81.70;;;;;;5033463;28;20041;-45
2020/12/19 08:28:44;;;;;;;3.60;2.90;;;10.90;81.70;;;;;;5018069;28;20091;-46
2020/12/19 08:31:34;;;;;;;4.32;3.05;;;10.90;81.70;;;;;;5016048;28;20084;-47
2020/12/19 08:34:04;;;;;;;2.92;2.58;;;10.90;82.30;;;;;;5033849;28;20048;-44
2020/12/19 08:36:31;;;;;;;3.92;3.00;;;10.90;81.70;;;;;;5033006;28;20057;-44
2020/12/19 08:39:26;;;;;;;4.38;3.33;;;10.90;81.70;;;;;;5034138;28;20041;-47
2020/12/19 08:41:52;;;;;;;3.95;2.67;;;10.90;81.70;;;;;;4932728;29;20047;-46
2020/12/19 08:44:26;;;;;;;4.65;3.38;;;10.90;81.70;;;;;;4934558;29;20118;-43
2020/12/19 08:47:05;;;;;;;4.57;3.22;;;10.90;81.60;;;;;;4934866;29;20567;-46
2020/12/19 08:49:31;;;;;;;3.55;2.92;;;10.90;81.70;;;;;;4934968;29;20071;-50
2020/12/19 08:51:57;;;;;;;3.13;2.78;;;10.90;81.70;;;;;;4934709;29;20039;-45
2020/12/19 08:54:24;;;;;;;4.32;3.30;;;10.90;81.60;;;;;;4934466;29;20489;-47
2020/12/19 08:56:50;;;;;;;3.65;2.88;;;10.90;81.70;;;;;;4934396;29;20043;-48
2020/12/19 08:59:36;;;;;;;3.95;2.92;;;10.90;81.70;;;;;;4920515;29;20056;-44
2020/12/19 09:02:22;;;;;;;3.70;2.75;;;10.90;81.60;;;;;;4919257;29;20047;-44
2020/12/19 09:05:09;;;;;;;4.72;2.75;;;10.90;81.70;;;;;;4921668;29;20055;-46
2020/12/19 09:07:36;;;;;;;4.15;3.22;;;10.90;81.60;;;;;;4933054;29;20044;-42
2020/12/19 09:10:29;;;;;;;3.53;2.70;;;10.90;81.70;;;;;;4919032;29;20044;-49
2020/12/19 09:13:11;;;;;;;3.60;2.63;;;10.90;81.70;;;;;;4934263;29;20058;-47
2020/12/19 09:15:39;;;;;;;3.03;2.72;;;11.00;81.70;;;;;;4934290;29;20052;-42
2020/12/19 09:18:32;;;;;;;3.20;2.90;;;10.90;81.60;;;;;;4975391;28;20084;-43
2020/12/19 09:21:00;;;;;;;4.00;2.85;;;10.90;81.60;;;;;;5027298;28;20041;-45
2020/12/19 09:23:27;;;;;;;3.35;2.80;;;10.90;81.60;;;;;;5033543;28;20057;-45
2020/12/19 09:26:12;;;;;;;3.42;3.10;;;10.90;81.60;;;;;;5017811;28;20087;-46
2020/12/19 09:28:58;;;;;;;4.30;2.88;;;10.90;81.60;;;;;;5029250;28;20490;-44
2020/12/19 09:31:26;;;;;;;3.55;2.90;;;10.90;81.60;;;;;;5032872;28;20192;-43
2020/12/19 09:34:12;;;;;;;2.72;2.33;;;10.90;81.60;;;;;;5017631;28;20049;-47
2020/12/19 09:36:57;;;;;;;3.83;2.50;;;10.90;81.70;;;;;;5018509;28;20053;-45
2020/12/19 09:39:23;;;;;;;3.30;3.00;;;10.90;81.70;;;;;;5031041;28;20196;-41
2020/12/19 09:41:49;;;;;;;3.53;2.80;;;10.90;81.60;;;;;;5031954;28;20081;-39
2020/12/19 09:44:14;;;;;;;3.28;2.97;;;10.90;81.60;;;;;;5033092;28;20045;-44
2020/12/19 09:46:40;;;;;;;3.28;2.67;;;10.90;81.60;;;;;;5033104;28;20053;-42
2020/12/19 09:49:06;;;;;;;3.90;3.15;;;10.90;81.60;;;;;;5033757;28;20042;-46
2020/12/19 09:51:31;;;;;;;3.13;2.58;;;10.90;81.60;;;;;;5033753;28;20072;-42
2020/12/19 09:54:17;;;;;;;4.53;3.25;;;10.90;81.60;;;;;;5018945;28;20045;-46
2020/12/19 09:57:02;;;;;;;3.50;2.85;;;10.90;81.60;;;;;;5018763;28;20068;-47
2020/12/19 09:59:28;;;;;;;3.28;2.67;;;10.90;81.60;;;;;;5033272;28;20050;-44
2020/12/19 10:01:54;;;;;;;3.88;2.58;;;10.90;81.60;;;;;;5016113;28;20041;-44
2020/12/19 10:04:19;;;;;;;4.30;3.05;;;10.90;81.60;;;;;;5013609;28;20124;-42
2020/12/19 10:06:50;;;;;;;4.03;2.70;;;11.00;81.60;;;;;;5013684;28;20100;-44
2020/12/19 10:09:16;;;;;;;3.33;3.00;;;11.00;81.60;;;;;;5013534;28;20115;-44
2020/12/19 10:11:41;;;;;;;3.42;2.80;;;10.90;81.60;;;;;;5014269;28;20046;-42
2020/12/19 10:14:07;;;;;;;3.38;2.92;;;11.00;81.70;;;;;;5013308;28;20108;-45
2020/12/19 10:16:33;;;;;;;3.80;3.10;;;11.00;81.60;;;;;;5013495;28;20053;-43
2020/12/19 10:18:59;;;;;;;3.35;2.80;;;10.90;81.60;;;;;;5013784;28;20053;-43
2020/12/19 10:21:24;;;;;;;3.72;2.80;;;10.90;81.60;;;;;;5010570;28;20085;-45
2020/12/19 10:23:50;;;;;;;3.63;2.80;;;10.90;81.60;;;;;;5030258;28;20081;-45
2020/12/19 10:26:16;;;;;;;3.90;2.95;;;11.00;81.60;;;;;;5031835;28;20401;-47
2020/12/19 10:28:41;;;;;;;3.00;2.70;;;10.90;81.60;;;;;;5032007;28;20856;-49
2020/12/19 10:31:07;;;;;;;4.35;3.22;;;10.90;81.60;;;;;;5032791;28;20493;-48
2020/12/19 10:33:32;;;;;;;3.75;2.60;;;11.00;81.60;;;;;;5031381;28;20050;-47
2020/12/19 10:35:58;;;;;;;3.10;2.75;;;11.00;81.60;;;;;;5013677;28;20053;-47
2020/12/19 10:38:44;;;;;;;3.97;3.00;;;11.00;81.60;;;;;;4998568;28;20123;-46
2020/12/19 10:41:13;;;;;;;3.63;3.10;;;11.00;81.60;;;;;;5015657;28;20534;-50
2020/12/19 10:43:59;;;;;;;3.80;3.05;;;10.90;81.50;;;;;;4999346;28;20069;-49
2020/12/19 10:46:26;;;;;;;3.45;2.55;;;11.00;81.60;;;;;;5051403;28;20489;-47
2020/12/19 10:49:12;;;;;;;3.33;2.67;;;11.00;81.60;;;;;;4998182;28;20486;-44
2020/12/19 10:51:37;;;;;;;2.90;2.60;;;11.00;81.60;;;;;;5012331;28;20180;-43
2020/12/19 10:54:03;;;;;;;4.07;2.80;;;11.00;81.50;;;;;;5015356;28;20053;-47
2020/12/19 10:56:49;;;;;;;3.28;2.60;;;11.00;81.50;;;;;;5015838;28;20050;-43
2020/12/19 10:59:14;;;;;;;3.65;2.40;;;11.00;81.50;;;;;;5031441;28;20068;-46
2020/12/19 11:01:40;;;;;;;4.20;2.80;;;11.00;81.50;;;;;;5026875;28;20064;-41
2020/12/19 11:04:26;;;;;;;4.05;2.60;;;11.00;81.50;;;;;;5012682;28;20053;-45
2020/12/19 11:06:52;;;;;;;3.10;2.45;;;11.00;81.50;;;;;;5030824;28;20401;-45
2020/12/19 11:09:18;;;;;;;3.90;2.95;;;11.00;81.50;;;;;;5031689;28;20037;-45
2020/12/19 11:11:54;;;;;;;3.72;2.70;;;11.00;81.50;;;;;;5009019;28;20418;-45
2020/12/19 11:14:21;;;;;;;3.63;3.20;;;11.00;81.50;;;;;;5053742;28;20052;-44
2020/12/19 11:16:46;;;;;;;3.10;2.67;;;11.00;81.50;;;;;;5055469;28;20131;-43
2020/12/19 11:19:12;;;;;;;3.00;2.47;;;11.00;81.50;;;;;;5056113;28;20125;-42
2020/12/19 11:21:58;;;;;;;3.50;2.80;;;11.00;81.50;;;;;;5010239;28;20077;-43
2020/12/19 11:24:24;;;;;;;3.03;2.55;;;11.00;81.40;;;;;;5034004;28;20081;-42
2020/12/19 11:26:49;;;;;;;4.18;3.08;;;11.00;81.40;;;;;;5034233;28;20056;-43
2020/12/19 11:29:15;;;;;;;3.40;2.70;;;11.00;81.40;;;;;;5016061;28;20041;-43
2020/12/19 11:32:04;;;;;;;3.05;2.42;;;11.00;81.40;;;;;;5017258;28;20071;-42
2020/12/19 11:34:31;;;;;;;3.63;2.85;;;11.00;81.40;;;;;;5033335;28;20045;-48
2020/12/19 11:37:16;;;;;;;3.55;2.78;;;11.00;81.40;;;;;;5009530;28;20045;-41
2020/12/19 11:39:42;;;;;;;3.33;2.60;;;11.00;81.40;;;;;;5034848;28;20046;-39
2020/12/19 11:42:28;;;;;;;3.92;2.85;;;11.00;81.40;;;;;;5017796;28;20104;-47
2020/12/19 11:44:54;;;;;;;2.60;2.35;;;11.00;81.40;;;;;;5034329;28;20580;-47
2020/12/19 11:47:19;;;;;;;3.97;2.80;;;11.00;81.40;;;;;;5035213;28;20470;-46
2020/12/19 11:49:45;;;;;;;3.13;2.72;;;11.10;81.40;;;;;;5035103;28;20502;-46
2020/12/19 11:52:11;;;;;;;3.40;3.10;;;11.00;81.40;;;;;;5034298;28;20041;-45
2020/12/19 11:54:57;;;;;;;3.45;2.80;;;11.10;81.40;;;;;;5019883;28;20084;-44
2020/12/19 11:57:23;;;;;;;3.13;2.30;;;11.00;81.30;;;;;;5035003;28;20045;-44
2020/12/19 11:59:48;;;;;;;3.25;2.72;;;11.00;81.30;;;;;;5034004;28;20038;-45
2020/12/19 12:02:14;;;;;;;3.22;2.53;;;11.10;81.40;;;;;;5036244;28;20052;-42
2020/12/19 12:05:00;;;;;;;3.47;2.58;;;11.00;81.30;;;;;;5020359;28;20057;-43
2020/12/19 12:07:45;;;;;;;3.85;2.78;;;11.00;81.30;;;;;;5018941;28;20041;-47
2020/12/19 12:10:11;;;;;;;3.33;2.97;;;11.00;81.30;;;;;;5035039;28;20049;-45
2020/12/19 12:12:37;;;;;;;3.45;2.90;;;11.10;81.40;;;;;;5035091;28;20527;-43
2020/12/19 12:15:03;;;;;;;2.80;2.38;;;11.10;81.40;;;;;;5034427;28;20057;-45
2020/12/19 12:17:49;;;;;;;2.70;2.22;;;11.10;81.40;;;;;;5018948;28;20049;-44
2020/12/19 12:20:18;;;;;;;3.05;2.63;;;11.00;81.30;;;;;;5035016;28;20050;-42
2020/12/19 12:22:44;;;;;;;3.70;2.80;;;11.10;81.30;;;;;;5048234;28;20115;-45
2020/12/19 12:25:10;;;;;;;3.08;2.30;;;11.10;81.30;;;;;;5055452;28;20110;-47
2020/12/19 12:27:36;;;;;;;2.90;2.60;;;11.10;81.30;;;;;;5036696;28;20481;-42
2020/12/19 12:30:04;;;;;;;4.20;3.28;;;11.10;81.30;;;;;;5054387;28;20478;-43
2020/12/19 12:32:29;;;;;;;2.72;2.30;;;11.10;81.30;;;;;;5054628;28;20052;-44
2020/12/19 12:34:55;;;;;;;3.35;2.67;;;11.10;81.30;;;;;;5055176;28;20049;-48
2020/12/19 12:37:21;;;;;;;3.10;2.60;;;11.10;81.30;;;;;;5054356;28;20080;-48
2020/12/19 12:39:46;;;;;;;3.17;2.75;;;11.10;81.30;;;;;;5055083;28;20094;-47
2020/12/19 12:42:12;;;;;;;3.30;2.70;;;11.10;81.20;;;;;;5054918;28;20053;-51
2020/12/19 12:44:58;;;;;;;2.97;2.35;;;11.10;81.20;;;;;;5038470;28;20047;-48
2020/12/19 12:47:43;;;;;;;3.38;2.60;;;11.10;81.20;;;;;;5039850;28;20456;-44
2020/12/19 12:50:29;;;;;;;3.08;2.78;;;11.10;81.20;;;;;;5039809;28;20045;-48
2020/12/19 12:52:55;;;;;;;3.00;2.25;;;11.10;81.20;;;;;;5053934;28;20053;-46
2020/12/19 12:55:20;;;;;;;2.90;2.40;;;11.10;81.20;;;;;;5054495;28;20102;-48
2020/12/19 12:57:46;;;;;;;3.05;2.35;;;11.10;81.20;;;;;;5040244;28;20053;-48
2020/12/19 13:00:31;;;;;;;2.90;2.50;;;11.10;81.20;;;;;;5018557;28;20147;-45
2020/12/19 13:03:17;;;;;;;3.90;2.97;;;11.10;81.20;;;;;;5019531;28;20045;-45
2020/12/19 13:05:43;;;;;;;2.88;2.33;;;11.10;81.20;;;;;;5034588;28;20405;-43
2020/12/19 13:08:08;;;;;;;2.90;2.42;;;11.10;81.20;;;;;;5033551;28;20060;-44
2020/12/19 13:10:35;;;;;;;3.55;2.65;;;11.10;81.20;;;;;;5034217;28;20050;-43